Skipton, United Kingdom
Current Conditions -  °F | °C
As of 6:20 PM on Sunday 21 Dec 2014 (Local Time) from EGNM Reporting Station
Light Rain Light Rain  
Wind Chill: 52°   Ceiling: Unl
Heat Index: 52°   Visibility: 6mi
Dew Point: 48°   Wind: 16mph
Humidity: 88%   Direction: 230°SW
Pressure: 29.88"   Gusts: 28mph
Location:  53.96°N, 2.01°W
Report Text: EGNM 211820Z 23014G24KT 190V270 9999 -RA SCT013 SCT019 11/09 Q1012
Loading
Personal Weather Stations






























Interactive Weather Map New forecast layout! Learn more

10-Day Weather Forecast

Advertisements
Track Severe Weather on mobile